Oracle, AZ (85623)

04:29 PM MST on November 22, 2014 (GMT -0700)
Oaks | Change Station
CLOSE
Current Station
Personligvejrstation
Location: Oracle, AZ
Højde: 4550 ft
Vejrstationer i nærheden

Elev 4550 ft 32.61 °N, 110.78 °W | Updated 8 minutes ago

Klart
Klart
65.7 ° F
Føles som 65.7 ° F
N
4.0
Vind Skiftende Vind NNV
Gusts 4.0 mph

I dag
Høj -- | Lav -- ° F
--% Risiko for nedbør
I går
Høj -- | Lav -- ° F
Precip. -- tommer
6:59 AM 5:19 PM
Nymåne, 0% visible
Tryk 29.94 tommer
Sigtbarhed 10.0 mil
Skyer Klart
Dugpunkt 27 ° F
Luftfugtighed 23%
Regnmængde 0.00 tommer
Snedybde Ikke tilgængelig.
UV 1.0 fra 12
Pollen 2.10 fra 12
Luftkvalitet Ikke tilgængelig.
Flu Activity Ikke tilgængelig.
METAR KDMA 222258Z AUTO VRB03KT 10SM CLR 20/M02 A2999 RMK AO2 SLP137 T02031019 $

More Conditions Fewer Conditions

Tryk 29.94 tommer
Sigtbarhed 10.0 mil
Skyer Klart
Dugpunkt 27 ° F
Luftfugtighed 23%
Regnmængde 0.00 tommer
Snedybde Ikke tilgængelig.
UV 1.0 fra 12
Pollen 2.10 fra 12
Luftkvalitet Ikke tilgængelig.
Flu Activity Ikke tilgængelig.
METAR KDMA 222258Z AUTO VRB03KT 10SM CLR 20/M02 A2999 RMK AO2 SLP137 T02031019 $

More Conditions Fewer Conditions

10-Day Weather Forecast

Almanac

Astronomi

Nov. 22, 2014 Opgang Nedgang
Faktisktidspunkt
Civilttusmørke
Nautisktusmørke
Astronomisktusmørke
Måne
Synligtlys’ længde
Dagens længde
Tomorrow will be .
, % of the Moon is Illuminated

Ekstremer i dag

State Highs State Lows

Community

WunderPhotos

Upload Photos

1,772,919 Billeder uploaded!

WunderBlogs® & News

Nearby

Luftkvalitet

  Luftkvalitet AQ-indeks Forureningskilder
Not available.

Snedybde

Station Depth Højde

Jordskælvsaktivitet

By Distance Mag. Time & Date
Minimum magnitude displayed is 2.5.

Kystnære vandtemperaturer

Sted Temperatur

Vejrstationer i nærheden